Time;durP1;ratioP1;P1;durP2;ratioP2;P2;SDS_P1;SDS_P2;PMS_P1;PMS_P2;Temp;Humidity;BMP_temperature;BMP_pressure;BME280_temperature;BME280_humidity;BME280_pressure;Samples;Min_cycle;Max_cycle;Signal;HPM_P1;HPM_P2
2021/12/19 00:04:01;;;;;;;69.28;22.58;;;;;;;;;;4996412;28;99890;-72
2021/12/19 00:09:13;;;;;;;73.57;22.10;;;;;;;;;;4998028;28;99951;-73
2021/12/19 00:11:40;;;;;;;68.82;21.95;;;;;;;;;;4986719;28;100294;-73
2021/12/19 00:14:06;;;;;;;83.90;22.02;;;;;;;;;;4989582;28;100274;-72
2021/12/19 00:16:32;;;;;;;99.35;25.00;;;;;;;;;;5001290;28;99317;-73
2021/12/19 00:18:59;;;;;;;72.47;24.67;;;;;;;;;;5006161;28;100826;-72
2021/12/19 00:21:26;;;;;;;79.30;24.02;;;;;;;;;;4986083;28;98946;-73
2021/12/19 00:23:53;;;;;;;94.80;25.17;;;;;;;;;;4986300;28;100305;-72
2021/12/19 00:26:20;;;;;;;87.50;25.10;;;;;;;;;;5006774;28;98550;-72
2021/12/19 00:28:47;;;;;;;80.80;24.85;;;;;;;;;;5005658;28;100957;-72
2021/12/19 00:31:13;;;;;;;93.82;25.35;;;;;;;;;;4978650;28;100335;-72
2021/12/19 00:33:41;;;;;;;101.03;24.60;;;;;;;;;;4990330;28;98643;-72
2021/12/19 00:36:07;;;;;;;116.85;25.35;;;;;;;;;;4989644;28;100601;-73
2021/12/19 00:38:34;;;;;;;93.45;26.55;;;;;;;;;;4989782;28;100376;-73
2021/12/19 00:41:01;;;;;;;111.43;27.25;;;;;;;;;;5010886;28;98649;-73
2021/12/19 00:43:36;;;;;;;107.60;26.88;;;;;;;;;;5008147;28;100215;-72
2021/12/19 00:46:07;;;;;;;115.97;27.10;;;;;;;;;;4989286;28;99080;-71
2021/12/19 00:48:35;;;;;;;98.28;26.27;;;;;;;;;;5003920;28;99998;-72
2021/12/19 00:51:02;;;;;;;157.15;28.20;;;;;;;;;;5007765;28;100191;-72
2021/12/19 00:53:28;;;;;;;126.15;25.75;;;;;;;;;;4992603;28;97830;-72
2021/12/19 00:55:55;;;;;;;104.95;27.48;;;;;;;;;;4990569;28;99411;-74
2021/12/19 00:58:21;;;;;;;111.57;26.02;;;;;;;;;;5001495;28;100010;-71
2021/12/19 01:00:48;;;;;;;103.35;25.55;;;;;;;;;;5009647;28;99309;-73
2021/12/19 01:03:15;;;;;;;107.13;25.52;;;;;;;;;;5008734;28;100687;-73
2021/12/19 01:05:42;;;;;;;103.28;24.30;;;;;;;;;;5007125;28;99798;-73
2021/12/19 01:08:11;;;;;;;57.80;18.77;;;;;;;;;;5002327;28;99833;-73
2021/12/19 01:10:38;;;;;;;61.15;20.50;;;;;;;;;;5009564;28;100427;-73
2021/12/19 01:13:05;;;;;;;92.03;24.15;;;;;;;;;;5008006;28;98532;-72
2021/12/19 01:15:32;;;;;;;79.43;22.20;;;;;;;;;;5009512;28;99553;-72
2021/12/19 01:17:59;;;;;;;90.50;24.60;;;;;;;;;;4999612;28;99143;-73
2021/12/19 01:20:26;;;;;;;113.45;24.75;;;;;;;;;;5001718;28;98879;-73
2021/12/19 01:22:53;;;;;;;111.28;26.05;;;;;;;;;;4998461;28;100560;-73
2021/12/19 01:25:19;;;;;;;140.02;26.52;;;;;;;;;;4998658;28;100356;-72
2021/12/19 01:27:46;;;;;;;80.93;23.88;;;;;;;;;;5006246;28;101081;-73
2021/12/19 01:30:13;;;;;;;78.90;21.45;;;;;;;;;;5010336;28;100289;-73
2021/12/19 01:32:40;;;;;;;122.97;25.98;;;;;;;;;;5014277;28;98549;-73
2021/12/19 01:35:07;;;;;;;68.25;20.75;;;;;;;;;;5014725;28;99258;-73
2021/12/19 01:37:34;;;;;;;53.15;18.52;;;;;;;;;;4999658;28;100766;-73
2021/12/19 01:40:00;;;;;;;47.25;17.00;;;;;;;;;;4990693;28;98560;-73
2021/12/19 01:42:30;;;;;;;35.42;14.27;;;;;;;;;;5007456;28;100161;-72
2021/12/19 01:44:57;;;;;;;34.38;14.50;;;;;;;;;;5011984;28;99439;-72
2021/12/19 01:47:23;;;;;;;32.85;13.77;;;;;;;;;;5010662;28;100576;-73
2021/12/19 01:49:50;;;;;;;27.63;12.75;;;;;;;;;;5010661;28;100866;-72
2021/12/19 01:52:17;;;;;;;25.95;11.85;;;;;;;;;;5004576;28;98497;-72
2021/12/19 01:54:44;;;;;;;30.55;11.93;;;;;;;;;;5010904;28;100512;-72
2021/12/19 01:57:11;;;;;;;24.98;11.45;;;;;;;;;;5008031;28;100683;-72
2021/12/19 01:59:37;;;;;;;34.35;14.52;;;;;;;;;;5009358;28;98561;-73
2021/12/19 02:02:04;;;;;;;50.83;14.43;;;;;;;;;;5007857;28;100489;-72
2021/12/19 02:04:32;;;;;;;53.50;17.83;;;;;;;;;;4991873;28;100947;-72
2021/12/19 02:06:59;;;;;;;55.28;17.40;;;;;;;;;;4994731;28;98044;-72
2021/12/19 02:09:26;;;;;;;40.15;16.02;;;;;;;;;;4988814;28;100589;-72
2021/12/19 02:11:52;;;;;;;44.13;17.27;;;;;;;;;;5000614;28;98577;-72
2021/12/19 02:14:19;;;;;;;29.15;12.85;;;;;;;;;;5008763;28;100005;-72
2021/12/19 02:16:46;;;;;;;38.20;16.00;;;;;;;;;;5006810;28;99481;-73
2021/12/19 02:19:12;;;;;;;35.28;14.98;;;;;;;;;;5009012;28;98648;-73
2021/12/19 02:21:39;;;;;;;30.40;13.65;;;;;;;;;;5003929;28;100082;-73
2021/12/19 02:24:07;;;;;;;32.53;14.27;;;;;;;;;;5002616;28;100465;-73
2021/12/19 02:26:33;;;;;;;34.88;14.57;;;;;;;;;;5007203;28;98557;-71
2021/12/19 02:29:00;;;;;;;37.88;15.13;;;;;;;;;;5008472;28;100152;-72
2021/12/19 02:31:28;;;;;;;33.22;13.68;;;;;;;;;;5008275;28;97830;-72
2021/12/19 02:34:04;;;;;;;23.17;11.60;;;;;;;;;;4996818;28;99322;-72
2021/12/19 02:39:44;;;;;;;27.88;12.43;;;;;;;;;;4999474;28;100818;-73
2021/12/19 02:50:24;;;;;;;40.20;14.68;;;;;;;;;;4968089;28;100456;-73
2021/12/19 02:52:51;;;;;;;35.20;15.07;;;;;;;;;;5009161;28;101544;-73
2021/12/19 02:55:18;;;;;;;44.33;16.90;;;;;;;;;;5005395;28;102239;-72
2021/12/19 02:57:45;;;;;;;53.10;18.00;;;;;;;;;;4995201;28;98884;-72
2021/12/19 03:00:13;;;;;;;32.33;15.13;;;;;;;;;;4993187;28;98979;-73
2021/12/19 03:02:40;;;;;;;34.80;16.40;;;;;;;;;;5008424;28;99989;-73
2021/12/19 03:05:07;;;;;;;42.38;16.67;;;;;;;;;;5005285;28;100941;-73
2021/12/19 03:07:38;;;;;;;43.90;18.75;;;;;;;;;;5006499;28;98593;-72
2021/12/19 03:18:24;;;;;;;46.10;17.65;;;;;;;;;;4986956;28;100206;-73
2021/12/19 03:20:50;;;;;;;47.45;17.13;;;;;;;;;;4990589;28;98502;-73
2021/12/19 03:23:17;;;;;;;44.45;17.73;;;;;;;;;;5007808;28;100596;-73
2021/12/19 03:25:43;;;;;;;59.70;20.38;;;;;;;;;;4991573;28;100919;-73
2021/12/19 03:28:10;;;;;;;75.20;21.73;;;;;;;;;;4993299;28;98511;-72
2021/12/19 03:30:37;;;;;;;70.70;20.95;;;;;;;;;;4986526;28;100488;-72
2021/12/19 03:33:04;;;;;;;55.17;19.70;;;;;;;;;;4989322;28;99790;-72
2021/12/19 03:35:30;;;;;;;71.18;21.38;;;;;;;;;;4986447;28;98689;-72
2021/12/19 03:37:59;;;;;;;62.90;19.55;;;;;;;;;;4995600;28;100812;-73
2021/12/19 03:40:35;;;;;;;57.50;18.67;;;;;;;;;;4986862;28;98655;-72
2021/12/19 03:43:13;;;;;;;51.10;18.10;;;;;;;;;;4992655;28;100574;-72
2021/12/19 03:45:39;;;;;;;46.45;17.55;;;;;;;;;;4990196;28;101249;-72
2021/12/19 03:48:10;;;;;;;37.10;15.85;;;;;;;;;;4990443;28;98215;-72
2021/12/19 03:50:37;;;;;;;46.08;15.52;;;;;;;;;;4990249;28;98573;-72
2021/12/19 03:53:04;;;;;;;44.78;15.65;;;;;;;;;;4990756;28;100143;-72
2021/12/19 03:55:30;;;;;;;47.03;15.60;;;;;;;;;;4984538;28;99335;-72
2021/12/19 03:57:59;;;;;;;59.38;17.27;;;;;;;;;;4994164;28;101578;-72
2021/12/19 04:00:27;;;;;;;54.15;16.27;;;;;;;;;;4992307;28;98556;-72
2021/12/19 04:02:55;;;;;;;41.85;15.02;;;;;;;;;;4986548;28;100912;-72
2021/12/19 04:05:22;;;;;;;54.65;16.15;;;;;;;;;;4990967;28;100231;-72
2021/12/19 04:07:49;;;;;;;54.08;16.05;;;;;;;;;;4985872;28;99108;-72
2021/12/19 04:10:15;;;;;;;49.85;15.32;;;;;;;;;;4992894;28;99946;-73
2021/12/19 04:12:42;;;;;;;37.05;13.18;;;;;;;;;;4990408;28;99344;-73
2021/12/19 04:15:10;;;;;;;25.20;10.57;;;;;;;;;;4993822;28;99165;-74
2021/12/19 04:17:37;;;;;;;34.03;12.73;;;;;;;;;;4995671;28;99381;-72
2021/12/19 04:20:04;;;;;;;34.05;12.95;;;;;;;;;;4997082;28;100258;-73
2021/12/19 04:22:30;;;;;;;25.98;11.13;;;;;;;;;;4987422;28;100922;-72
2021/12/19 04:24:57;;;;;;;30.63;11.82;;;;;;;;;;4989216;28;100562;-72
2021/12/19 04:27:23;;;;;;;33.30;12.07;;;;;;;;;;4995949;28;100132;-72
2021/12/19 04:29:52;;;;;;;46.03;13.93;;;;;;;;;;4994116;28;100111;-73
2021/12/19 04:32:23;;;;;;;28.52;11.00;;;;;;;;;;5002861;28;100314;-72
2021/12/19 04:34:49;;;;;;;21.25;9.52;;;;;;;;;;4982670;28;99674;-73
2021/12/19 04:37:45;;;;;;;5.35;4.63;;;;;;;;;;4996766;28;100259;-72
2021/12/19 04:40:11;;;;;;;5.00;4.03;;;;;;;;;;4985180;28;99873;-73
2021/12/19 04:43:55;;;;;;;4.25;2.63;;;;;;;;;;4998757;28;100047;-73
2021/12/19 04:51:35;;;;;;;1.60;1.52;;;;;;;;;;4987010;28;99560;-73
2021/12/19 04:56:48;;;;;;;4.40;2.40;;;;;;;;;;4994323;28;98770;-72
2021/12/19 05:05:02;;;;;;;4.95;2.85;;;;;;;;;;4994754;28;99286;-72
2021/12/19 05:15:46;;;;;;;1.77;1.67;;;;;;;;;;4989179;28;103532;-72
2021/12/19 05:18:13;;;;;;;2.00;1.90;;;;;;;;;;4984473;28;98814;-73
2021/12/19 05:20:50;;;;;;;4.43;2.30;;;;;;;;;;4998498;28;100515;-73
2021/12/19 05:25:59;;;;;;;1.88;1.77;;;;;;;;;;4996799;28;98701;-73
2021/12/19 05:28:25;;;;;;;2.17;1.95;;;;;;;;;;4991789;28;100108;-72
2021/12/19 05:30:52;;;;;;;2.92;2.60;;;;;;;;;;4993482;28;98630;-72
2021/12/19 05:33:18;;;;;;;2.08;1.88;;;;;;;;;;4988810;28;98615;-72
2021/12/19 05:46:35;;;;;;;3.47;2.38;;;;;;;;;;4995060;28;98512;-72
2021/12/19 05:49:04;;;;;;;6.03;2.85;;;;;;;;;;4991839;28;99534;-72
2021/12/19 05:51:30;;;;;;;6.03;3.58;;;;;;;;;;4988112;28;99643;-72
2021/12/19 05:53:57;;;;;;;6.65;3.40;;;;;;;;;;4993706;28;98996;-72
2021/12/19 05:56:23;;;;;;;7.10;3.97;;;;;;;;;;4989082;28;99026;-72
2021/12/19 05:58:50;;;;;;;9.98;4.15;;;;;;;;;;4989211;28;98621;-72
2021/12/19 06:01:16;;;;;;;7.70;4.07;;;;;;;;;;4991210;28;100028;-72
2021/12/19 06:03:42;;;;;;;8.27;3.83;;;;;;;;;;4992264;28;101687;-73
2021/12/19 06:06:09;;;;;;;9.07;3.88;;;;;;;;;;4989002;28;98990;-72
2021/12/19 06:08:35;;;;;;;5.40;2.88;;;;;;;;;;4991147;28;100030;-72
2021/12/19 06:11:02;;;;;;;9.50;4.57;;;;;;;;;;4988449;28;100406;-72
2021/12/19 06:13:28;;;;;;;10.75;4.80;;;;;;;;;;5001975;28;99108;-72
2021/12/19 06:15:57;;;;;;;9.25;4.40;;;;;;;;;;4990173;28;100505;-72
2021/12/19 06:18:24;;;;;;;5.88;3.47;;;;;;;;;;4981542;28;98974;-72
2021/12/19 06:20:50;;;;;;;3.17;2.50;;;;;;;;;;4989929;28;99896;-72
2021/12/19 06:23:16;;;;;;;5.40;2.88;;;;;;;;;;4995378;28;100280;-73
2021/12/19 06:25:46;;;;;;;6.50;2.80;;;;;;;;;;4991274;28;100177;-72
2021/12/19 06:28:16;;;;;;;4.15;2.10;;;;;;;;;;4993623;28;101942;-73
2021/12/19 06:30:42;;;;;;;5.05;2.58;;;;;;;;;;4988528;28;100181;-71
2021/12/19 06:33:09;;;;;;;2.78;1.98;;;;;;;;;;4994174;28;98917;-72
2021/12/19 06:35:36;;;;;;;3.22;2.30;;;;;;;;;;4991164;28;100177;-72
2021/12/19 06:38:02;;;;;;;1.45;1.35;;;;;;;;;;4993528;28;98536;-72
2021/12/19 06:40:29;;;;;;;1.88;1.77;;;;;;;;;;4993486;28;99867;-73
2021/12/19 06:42:56;;;;;;;4.10;1.70;;;;;;;;;;4987913;28;100823;-72
2021/12/19 06:45:22;;;;;;;2.25;1.75;;;;;;;;;;4990902;28;97883;-72
2021/12/19 06:47:49;;;;;;;3.85;1.50;;;;;;;;;;4988321;28;99397;-73
2021/12/19 06:50:21;;;;;;;2.00;1.63;;;;;;;;;;4990018;28;99418;-73
2021/12/19 06:52:47;;;;;;;3.00;1.75;;;;;;;;;;4988224;28;99795;-73
2021/12/19 06:55:15;;;;;;;1.73;1.63;;;;;;;;;;4993207;28;100798;-72
2021/12/19 06:57:41;;;;;;;2.30;2.10;;;;;;;;;;4993872;28;100268;-73
2021/12/19 07:00:12;;;;;;;2.75;1.67;;;;;;;;;;4989568;28;99306;-74
2021/12/19 07:02:39;;;;;;;2.33;2.13;;;;;;;;;;4988208;28;99828;-73
2021/12/19 07:05:05;;;;;;;4.80;2.70;;;;;;;;;;4995524;28;98889;-73
2021/12/19 07:07:32;;;;;;;3.42;2.60;;;;;;;;;;4980636;28;100127;-72
2021/12/19 07:09:58;;;;;;;3.60;2.63;;;;;;;;;;4987955;28;99582;-73
2021/12/19 07:12:27;;;;;;;4.50;2.85;;;;;;;;;;4989513;28;99026;-74
2021/12/19 07:14:54;;;;;;;7.80;2.97;;;;;;;;;;4988208;28;100033;-72
2021/12/19 07:17:20;;;;;;;5.25;2.92;;;;;;;;;;4985821;28;100558;-73
2021/12/19 07:19:47;;;;;;;4.28;3.10;;;;;;;;;;4990410;28;98611;-73
2021/12/19 07:22:13;;;;;;;5.57;3.03;;;;;;;;;;4987468;28;100208;-73
2021/12/19 07:24:40;;;;;;;4.57;3.30;;;;;;;;;;4987520;28;98641;-73
2021/12/19 07:27:07;;;;;;;3.28;2.50;;;;;;;;;;4984676;28;100772;-73
2021/12/19 07:29:33;;;;;;;5.32;3.10;;;;;;;;;;4990895;28;100055;-73
2021/12/19 07:32:00;;;;;;;3.20;2.50;;;;;;;;;;4987424;28;98581;-73
2021/12/19 07:34:32;;;;;;;6.43;2.90;;;;;;;;;;4989001;28;100156;-73
2021/12/19 07:37:00;;;;;;;2.53;2.05;;;;;;;;;;4992633;28;99388;-73
2021/12/19 07:42:13;;;;;;;3.00;2.22;;;;;;;;;;4957447;28;99403;-72
2021/12/19 07:44:39;;;;;;;4.70;2.85;;;;;;;;;;4994052;28;99573;-72
2021/12/19 07:47:07;;;;;;;2.72;2.15;;;;;;;;;;4993803;28;99987;-73
2021/12/19 07:49:33;;;;;;;6.03;2.67;;;;;;;;;;4993074;28;100035;-73
2021/12/19 07:52:00;;;;;;;2.70;2.20;;;;;;;;;;4997150;28;98989;-72
2021/12/19 07:54:26;;;;;;;7.05;2.30;;;;;;;;;;4992526;28;99938;-72
2021/12/19 07:56:53;;;;;;;5.82;2.40;;;;;;;;;;4994635;28;100280;-72
2021/12/19 07:59:19;;;;;;;7.57;2.80;;;;;;;;;;4996985;28;99850;-72
2021/12/19 08:01:45;;;;;;;2.05;1.88;;;;;;;;;;4997929;28;99586;-73
2021/12/19 08:04:12;;;;;;;2.15;1.73;;;;;;;;;;5003912;28;99779;-73
2021/12/19 08:06:38;;;;;;;3.97;2.10;;;;;;;;;;5002566;28;99922;-72
2021/12/19 08:09:09;;;;;;;2.33;1.88;;;;;;;;;;4993506;28;100213;-72
2021/12/19 08:11:42;;;;;;;2.83;2.63;;;;;;;;;;4999840;28;98611;-72
2021/12/19 08:14:12;;;;;;;3.20;2.00;;;;;;;;;;4990638;28;101338;-72
2021/12/19 08:16:40;;;;;;;3.22;2.42;;;;;;;;;;4989690;28;100241;-71
2021/12/19 08:19:06;;;;;;;3.75;2.90;;;;;;;;;;4994679;28;98573;-72
2021/12/19 08:21:32;;;;;;;3.63;2.70;;;;;;;;;;4996581;28;100505;-72
2021/12/19 08:24:01;;;;;;;9.23;3.50;;;;;;;;;;4996792;28;99470;-72
2021/12/19 08:26:29;;;;;;;4.35;3.67;;;;;;;;;;4984152;28;100055;-72
2021/12/19 08:28:59;;;;;;;3.45;2.90;;;;;;;;;;4973535;28;100223;-72
2021/12/19 08:31:26;;;;;;;10.43;7.30;;;;;;;;;;4977797;28;99295;-72
2021/12/19 08:33:53;;;;;;;3.60;3.30;;;;;;;;;;4994744;28;100585;-72
2021/12/19 08:36:20;;;;;;;3.63;3.20;;;;;;;;;;4991796;28;101416;-73
2021/12/19 08:38:47;;;;;;;4.90;4.35;;;;;;;;;;4994463;28;99037;-73
2021/12/19 08:41:14;;;;;;;5.15;3.45;;;;;;;;;;5007865;28;100049;-72
2021/12/19 08:43:40;;;;;;;1.88;1.77;;;;;;;;;;5000056;28;100070;-72
2021/12/19 08:46:09;;;;;;;3.22;2.22;;;;;;;;;;4997679;28;98525;-72
2021/12/19 08:48:35;;;;;;;1.67;1.60;;;;;;;;;;4999995;28;99717;-72
2021/12/19 08:51:02;;;;;;;6.65;2.95;;;;;;;;;;4989323;28;98985;-71
2021/12/19 08:53:29;;;;;;;2.47;2.28;;;;;;;;;;4974448;28;100107;-71
2021/12/19 08:55:55;;;;;;;2.45;1.95;;;;;;;;;;4990101;28;101453;-71
2021/12/19 08:58:22;;;;;;;4.53;2.20;;;;;;;;;;4983742;28;100680;-72
2021/12/19 09:00:48;;;;;;;4.57;1.92;;;;;;;;;;4988474;28;100593;-71
2021/12/19 09:03:15;;;;;;;2.40;1.80;;;;;;;;;;4992245;28;100682;-73
2021/12/19 09:05:41;;;;;;;2.22;2.03;;;;;;;;;;5005430;28;98548;-73
2021/12/19 09:08:08;;;;;;;6.32;2.15;;;;;;;;;;5007400;28;100286;-73
2021/12/19 09:10:34;;;;;;;2.72;2.33;;;;;;;;;;5008219;28;100642;-72
2021/12/19 09:13:00;;;;;;;2.50;2.30;;;;;;;;;;5000101;28;100602;-72
2021/12/19 09:15:27;;;;;;;4.63;2.35;;;;;;;;;;4989177;28;99875;-72
2021/12/19 09:17:53;;;;;;;5.53;2.67;;;;;;;;;;4990330;28;99153;-71
2021/12/19 09:20:20;;;;;;;5.00;2.50;;;;;;;;;;4985158;28;101744;-71
2021/12/19 09:22:46;;;;;;;4.10;3.17;;;;;;;;;;4993612;27;99489;-71
2021/12/19 09:25:17;;;;;;;6.05;3.33;;;;;;;;;;4997529;28;98605;-71
2021/12/19 09:27:43;;;;;;;4.40;3.08;;;;;;;;;;4997629;28;100714;-71
2021/12/19 09:30:10;;;;;;;3.05;2.40;;;;;;;;;;5003103;28;99423;-71
2021/12/19 09:32:36;;;;;;;8.60;3.20;;;;;;;;;;4970369;28;99977;-71
2021/12/19 09:35:03;;;;;;;5.22;3.40;;;;;;;;;;4976451;28;99932;-71
2021/12/19 09:37:30;;;;;;;5.53;3.67;;;;;;;;;;4982031;28;99233;-71
2021/12/19 09:39:56;;;;;;;8.50;4.40;;;;;;;;;;4997873;28;99111;-71
2021/12/19 09:42:32;;;;;;;4.88;3.20;;;;;;;;;;5009520;28;100678;-70
2021/12/19 09:44:59;;;;;;;13.35;3.97;;;;;;;;;;5010354;28;99415;-74
2021/12/19 09:47:25;;;;;;;5.53;4.20;;;;;;;;;;5009086;28;101765;-70
2021/12/19 09:49:53;;;;;;;11.93;5.07;;;;;;;;;;5009743;28;99803;-70
2021/12/19 09:52:19;;;;;;;8.50;5.18;;;;;;;;;;5012198;28;98666;-72
2021/12/19 09:54:46;;;;;;;12.63;8.32;;;;;;;;;;5010028;28;100268;-70
2021/12/19 09:57:12;;;;;;;10.20;5.00;;;;;;;;;;5009972;28;98601;-71
2021/12/19 09:59:38;;;;;;;11.73;5.22;;;;;;;;;;5009215;28;100206;-71
2021/12/19 10:02:05;;;;;;;7.15;4.95;;;;;;;;;;5010201;28;99522;-71
2021/12/19 10:04:34;;;;;;;11.38;4.07;;;;;;;;;;5010082;28;98585;-72
2021/12/19 10:07:03;;;;;;;7.95;3.85;;;;;;;;;;5009822;28;100392;-72
2021/12/19 10:09:30;;;;;;;8.57;4.40;;;;;;;;;;5008694;28;101340;-71
2021/12/19 10:12:11;;;;;;;9.85;4.70;;;;;;;;;;5012342;28;98552;-72
2021/12/19 10:14:38;;;;;;;14.57;4.50;;;;;;;;;;5012011;28;99003;-71
2021/12/19 10:17:15;;;;;;;7.00;4.57;;;;;;;;;;5009713;28;98566;-71
2021/12/19 10:19:43;;;;;;;7.80;3.40;;;;;;;;;;5009727;28;99989;-71
2021/12/19 10:22:23;;;;;;;12.05;4.40;;;;;;;;;;5008415;28;101105;-71
2021/12/19 10:24:49;;;;;;;11.85;5.28;;;;;;;;;;5009412;28;98596;-71
2021/12/19 10:27:32;;;;;;;18.52;4.90;;;;;;;;;;5009694;28;100140;-72
2021/12/19 10:29:59;;;;;;;;;;;;;;;;;;5009579;28;100090;-72
2021/12/19 10:32:25;;;;;;;11.77;4.80;;;;;;;;;;5009359;28;118948;-71
2021/12/19 10:35:11;;;;;;;19.58;5.63;;;;;;;;;;5011170;28;100482;-71
2021/12/19 10:37:38;;;;;;;12.43;4.63;;;;;;;;;;4995172;28;98975;-72
2021/12/19 10:40:05;;;;;;;11.02;4.63;;;;;;;;;;4989977;28;99296;-71
2021/12/19 10:42:42;;;;;;;13.38;4.88;;;;;;;;;;4989898;28;99486;-71
2021/12/19 10:48:07;;;;;;;10.27;4.43;;;;;;;;;;4990195;28;99093;-72
2021/12/19 10:50:54;;;;;;;18.85;5.40;;;;;;;;;;4988206;28;100185;-71
2021/12/19 10:53:25;;;;;;;16.23;5.35;;;;;;;;;;4989252;28;97857;-72
2021/12/19 10:55:52;;;;;;;14.70;5.72;;;;;;;;;;4989933;28;99251;-72
2021/12/19 10:58:25;;;;;;;14.60;5.78;;;;;;;;;;4992123;28;100871;-72
2021/12/19 11:00:56;;;;;;;10.48;5.65;;;;;;;;;;4988434;28;99501;-71
2021/12/19 11:03:35;;;;;;;16.92;5.63;;;;;;;;;;4987218;28;100580;-71
2021/12/19 11:06:12;;;;;;;18.88;6.40;;;;;;;;;;4988852;28;98590;-72
2021/12/19 11:08:40;;;;;;;15.48;6.82;;;;;;;;;;4987868;28;100166;-72
2021/12/19 11:11:06;;;;;;;12.80;5.78;;;;;;;;;;4987778;28;100208;-72
2021/12/19 11:13:33;;;;;;;16.50;8.30;;;;;;;;;;4982142;28;98550;-72
2021/12/19 11:15:59;;;;;;;14.73;5.68;;;;;;;;;;4969275;28;100144;-71
2021/12/19 11:18:26;;;;;;;13.38;5.07;;;;;;;;;;4975695;28;99401;-72
2021/12/19 11:20:52;;;;;;;10.05;4.85;;;;;;;;;;4986501;28;98545;-70
2021/12/19 11:23:18;;;;;;;14.02;5.25;;;;;;;;;;4973879;28;102283;-71
2021/12/19 11:25:45;;;;;;;14.95;4.88;;;;;;;;;;4972861;28;100205;-72
2021/12/19 11:28:12;;;;;;;17.23;6.43;;;;;;;;;;4978375;28;100939;-72
2021/12/19 11:30:38;;;;;;;14.70;6.05;;;;;;;;;;4993554;28;99791;-71
2021/12/19 11:33:12;;;;;;;40.13;12.02;;;;;;;;;;4981701;28;99195;-71
2021/12/19 11:35:41;;;;;;;15.02;6.00;;;;;;;;;;4967766;28;100165;-72
2021/12/19 11:38:09;;;;;;;10.25;5.72;;;;;;;;;;4983882;28;100380;-72
2021/12/19 11:40:37;;;;;;;15.40;6.50;;;;;;;;;;4990135;28;98786;-72
2021/12/19 11:43:08;;;;;;;16.90;8.55;;;;;;;;;;5006036;28;100599;-71
2021/12/19 11:45:41;;;;;;;12.75;5.82;;;;;;;;;;4997745;28;99706;-72
2021/12/19 11:48:15;;;;;;;11.77;4.75;;;;;;;;;;5000426;28;100048;-71
2021/12/19 11:50:55;;;;;;;18.10;5.90;;;;;;;;;;4993517;28;100429;-71
2021/12/19 11:53:21;;;;;;;12.90;5.03;;;;;;;;;;5007042;28;98642;-72
2021/12/19 11:55:49;;;;;;;23.92;6.03;;;;;;;;;;4989526;28;99314;-71
2021/12/19 11:58:22;;;;;;;16.35;9.18;;;;;;;;;;4992905;28;101112;-72
2021/12/19 12:00:50;;;;;;;13.18;6.35;;;;;;;;;;4996883;28;98786;-72
2021/12/19 12:03:17;;;;;;;14.98;4.30;;;;;;;;;;4994631;28;99924;-72
2021/12/19 12:05:45;;;;;;;16.60;4.88;;;;;;;;;;5003063;28;99286;-72
2021/12/19 12:08:12;;;;;;;5.97;3.72;;;;;;;;;;4990058;28;100002;-72
2021/12/19 12:10:51;;;;;;;8.93;3.90;;;;;;;;;;4998792;28;102431;-71
2021/12/19 12:13:28;;;;;;;25.60;15.40;;;;;;;;;;4998169;28;99284;-71
2021/12/19 12:16:07;;;;;;;12.23;6.00;;;;;;;;;;5006234;28;99458;-72
2021/12/19 12:18:41;;;;;;;18.48;5.93;;;;;;;;;;5005022;28;100560;-72
2021/12/19 12:21:21;;;;;;;13.35;5.43;;;;;;;;;;4986644;28;101096;-72
2021/12/19 12:23:56;;;;;;;9.18;4.80;;;;;;;;;;4993321;28;100569;-72
2021/12/19 12:26:29;;;;;;;10.15;4.80;;;;;;;;;;4979633;28;100787;-71
2021/12/19 12:28:55;;;;;;;21.85;7.80;;;;;;;;;;4979608;28;98566;-70
2021/12/19 12:31:24;;;;;;;10.30;4.55;;;;;;;;;;4991957;28;100295;-72
2021/12/19 12:33:50;;;;;;;14.75;4.80;;;;;;;;;;4990250;28;99552;-72
2021/12/19 12:36:17;;;;;;;13.23;3.83;;;;;;;;;;4995336;28;99438;-72
2021/12/19 12:38:46;;;;;;;11.45;4.32;;;;;;;;;;4993312;28;100806;-72
2021/12/19 12:41:27;;;;;;;14.38;4.72;;;;;;;;;;5010840;28;100218;-71
2021/12/19 12:43:54;;;;;;;16.02;4.63;;;;;;;;;;5009256;28;99787;-72
2021/12/19 12:46:21;;;;;;;8.75;4.05;;;;;;;;;;5001192;28;100526;-71
2021/12/19 12:48:48;;;;;;;10.90;4.90;;;;;;;;;;5013044;28;100446;-73
2021/12/19 12:51:18;;;;;;;20.02;4.95;;;;;;;;;;5007933;28;100164;-72
2021/12/19 12:53:46;;;;;;;11.38;4.72;;;;;;;;;;5011362;28;101000;-71
2021/12/19 12:56:18;;;;;;;17.70;4.85;;;;;;;;;;4986117;28;100134;-72
2021/12/19 12:58:46;;;;;;;9.43;4.35;;;;;;;;;;5000406;28;99234;-71
2021/12/19 13:01:29;;;;;;;15.45;7.28;;;;;;;;;;5005918;28;98972;-72
2021/12/19 13:03:59;;;;;;;14.35;5.07;;;;;;;;;;5028053;28;100768;-72
2021/12/19 13:06:39;;;;;;;10.45;4.38;;;;;;;;;;5004239;28;99829;-72
2021/12/19 13:09:09;;;;;;;11.43;5.40;;;;;;;;;;4994550;28;98477;-72
2021/12/19 13:11:36;;;;;;;15.50;6.93;;;;;;;;;;5022058;28;100429;-72
2021/12/19 13:14:12;;;;;;;47.00;29.92;;;;;;;;;;5022212;28;98911;-71
2021/12/19 13:16:42;;;;;;;18.77;7.53;;;;;;;;;;5003760;28;100887;-71
2021/12/19 13:19:09;;;;;;;11.38;5.35;;;;;;;;;;5007741;28;100482;-73
2021/12/19 13:21:54;;;;;;;16.73;5.32;;;;;;;;;;5004701;28;99185;-72
2021/12/19 13:24:22;;;;;;;18.42;7.95;;;;;;;;;;5011983;28;98924;-71
2021/12/19 13:27:24;;;;;;;11.75;4.38;;;;;;;;;;4986790;28;100486;-71
2021/12/19 13:29:57;;;;;;;10.63;4.63;;;;;;;;;;4988169;28;98563;-71
2021/12/19 13:32:26;;;;;;;10.43;3.55;;;;;;;;;;5005687;28;99993;-71
2021/12/19 13:34:53;;;;;;;14.90;6.82;;;;;;;;;;5012454;28;100156;-72
2021/12/19 13:37:20;;;;;;;8.23;3.97;;;;;;;;;;4997446;28;100878;-72
2021/12/19 13:40:02;;;;;;;12.90;4.47;;;;;;;;;;4988392;28;101223;-73
2021/12/19 13:42:37;;;;;;;13.30;6.18;;;;;;;;;;5005728;28;98700;-72
2021/12/19 13:45:24;;;;;;;9.32;4.35;;;;;;;;;;4982214;28;99861;-72
2021/12/19 13:47:50;;;;;;;19.83;4.75;;;;;;;;;;4997338;28;100600;-71
2021/12/19 13:50:17;;;;;;;64.25;43.03;;;;;;;;;;5000778;28;97917;-71
2021/12/19 13:52:44;;;;;;;32.85;23.42;;;;;;;;;;5005440;28;99503;-71
2021/12/19 13:55:11;;;;;;;10.15;6.22;;;;;;;;;;5009054;28;99791;-71
2021/12/19 13:57:37;;;;;;;15.23;6.03;;;;;;;;;;5006966;28;100981;-71
2021/12/19 14:00:05;;;;;;;5.72;4.22;;;;;;;;;;5008277;28;100078;-72
2021/12/19 14:02:38;;;;;;;8.10;3.88;;;;;;;;;;5005410;28;98566;-72
2021/12/19 14:05:33;;;;;;;8.27;4.75;;;;;;;;;;5001316;28;101436;-71
2021/12/19 14:08:00;;;;;;;9.95;4.57;;;;;;;;;;4955460;28;99657;-70
2021/12/19 14:10:26;;;;;;;8.55;3.63;;;;;;;;;;4991873;28;98553;-71
2021/12/19 14:15:19;;;;;;;3.83;2.55;;;;;;;;;;5002904;28;99171;-70
2021/12/19 14:17:45;;;;;;;11.80;4.88;;;;;;;;;;5009549;28;98557;-70
2021/12/19 14:20:12;;;;;;;6.25;3.58;;;;;;;;;;4978866;28;100147;-71
2021/12/19 14:22:38;;;;;;;5.90;2.60;;;;;;;;;;5004736;28;100947;-70
2021/12/19 14:25:07;;;;;;;10.25;3.80;;;;;;;;;;5005017;28;99861;-70
2021/12/19 14:27:37;;;;;;;10.25;4.22;;;;;;;;;;5001085;28;100554;-70
2021/12/19 14:30:06;;;;;;;9.90;4.85;;;;;;;;;;5002516;28;100027;-70
2021/12/19 14:32:33;;;;;;;7.55;4.20;;;;;;;;;;5008225;28;100254;-71
2021/12/19 14:35:02;;;;;;;8.95;3.90;;;;;;;;;;4990460;28;99349;-70
2021/12/19 14:37:33;;;;;;;18.08;11.43;;;;;;;;;;5003986;28;100366;-71
2021/12/19 14:40:10;;;;;;;7.97;4.40;;;;;;;;;;4994408;28;100105;-71
2021/12/19 14:42:46;;;;;;;23.70;15.95;;;;;;;;;;5007980;28;98493;-71
2021/12/19 14:45:30;;;;;;;8.80;3.28;;;;;;;;;;5004526;28;100392;-71
2021/12/19 14:48:01;;;;;;;12.80;3.25;;;;;;;;;;5003004;28;102021;-71
2021/12/19 14:50:30;;;;;;;12.52;3.60;;;;;;;;;;4990502;28;98569;-71
2021/12/19 14:53:06;;;;;;;11.93;8.48;;;;;;;;;;4989048;28;98991;-72
2021/12/19 14:55:43;;;;;;;13.02;3.65;;;;;;;;;;5001169;28;100005;-72
2021/12/19 14:58:10;;;;;;;17.58;9.65;;;;;;;;;;5009328;28;98552;-71
2021/12/19 15:00:37;;;;;;;23.63;15.30;;;;;;;;;;4994523;28;100784;-72
2021/12/19 15:03:04;;;;;;;10.02;5.95;;;;;;;;;;4988404;28;99708;-71
2021/12/19 15:05:32;;;;;;;9.27;4.57;;;;;;;;;;5009324;28;99934;-71
2021/12/19 15:08:00;;;;;;;11.90;3.95;;;;;;;;;;5000179;28;99986;-71
2021/12/19 15:10:26;;;;;;;7.85;3.47;;;;;;;;;;5007877;28;98580;-71
2021/12/19 15:12:53;;;;;;;7.30;3.90;;;;;;;;;;5004457;28;100523;-71
2021/12/19 15:15:19;;;;;;;14.73;4.80;;;;;;;;;;5008199;28;101104;-72
2021/12/19 15:17:45;;;;;;;13.07;4.85;;;;;;;;;;5005806;28;98631;-71
2021/12/19 15:20:12;;;;;;;10.77;4.20;;;;;;;;;;5008708;28;99206;-71
2021/12/19 15:22:41;;;;;;;16.48;5.20;;;;;;;;;;4996465;28;100446;-71
2021/12/19 15:25:09;;;;;;;13.77;4.95;;;;;;;;;;5001719;28;100854;-72
2021/12/19 15:27:36;;;;;;;10.57;5.05;;;;;;;;;;4980849;28;100957;-71
2021/12/19 15:30:03;;;;;;;17.05;4.40;;;;;;;;;;4988732;28;99721;-71
2021/12/19 15:32:29;;;;;;;10.20;2.88;;;;;;;;;;4984592;28;100193;-71
2021/12/19 15:34:55;;;;;;;18.40;5.03;;;;;;;;;;4996995;28;100224;-71
2021/12/19 15:37:22;;;;;;;14.32;5.00;;;;;;;;;;4993584;28;101540;-71
2021/12/19 15:39:48;;;;;;;16.67;5.25;;;;;;;;;;4989726;28;102548;-71
2021/12/19 15:42:15;;;;;;;16.02;6.18;;;;;;;;;;4990304;28;100350;-71